CheckWX is a tool to help pilots better visualize weather data.  It is not intended as a substitute for an official pre-flight weather briefing.

07:54:35 UTC

KRIL METAR
Rifle Garfield County Airport
Rifle, Colorado, USA
Current

1 hour ago

KRIL 210653Z AUTO 19003KT 10SM CLR M03/M07 A3009 RMK AO2 SLP193 T10281067 400781028
Observed
Oct-21 @ 06:53 UTC
Wind
  • 190° at 3 KTS
Visibility
10 SM
Flight Rules
VFR
Cloud Levels
  • Clear skies
Temperature
-3°C / 27°F
Dewpoint
-7°C / 19°F
Humidity
74%
Altimeter
30.09" Hg
Pressure
1018.92 hPa
Previous

2 hours ago

KRIL 210553Z AUTO 00000KT 10SM BKN070 M02/M07 A3011 RMK AO2 SLP196 T10171067 10050 21028 51005
Observed
Oct-21 @ 05:53 UTC
Visibility
10 SM
Flight Rules
VFR
Cloud Levels
  • Broken at 7,000' AGL
Temperature
-2°C / 28°F
Dewpoint
-7°C / 19°F
Humidity
69%
Altimeter
30.11" Hg
Pressure
1019.62 hPa
Previous

3 hours ago

KRIL 210453Z AUTO 00000KT 10SM CLR M02/M08 A3010 RMK AO2 SLP199 T10171078
Observed
Oct-21 @ 04:53 UTC
Visibility
10 SM
Flight Rules
VFR
Cloud Levels
  • Clear skies
Temperature
-2°C / 28°F
Dewpoint
-8°C / 18°F
Humidity
64%
Altimeter
30.1" Hg
Pressure
1019.32 hPa